Language selection

My Weather Profile Weather Topics  | 

Pacific - North Coast: Past 24 Hour Conditions

 

Bella Coola Airport

05:00 PM PDT 18 June 2021
Disclaimer

This table is a summary of hourly weather conditions for the past 24 hours.
Please note that these observations might not always be representative of weather conditions over their associated marine area.

Date / Time
(PDT)
Wind(knots) Conditions Visibility(km) Pressure(kPa) Air tempC) Relative humidity(%) Dew pointC)
18 June 2021
17:00 WSW 16 gust 25 Mostly Cloudy 24 101.9 19 50 9
16:00 WSW 16 gust 26 Partly Cloudy 24 101.9 20 50 9
15:00 WSW 14 gust 22 Partly Cloudy 24 102.0 19 51 9
14:00 WSW 14 gust 21 Partly Cloudy 24 102.0 19 51 9
13:00 W 16 Partly Cloudy 24 102.1 19 55 10
12:00 W 15 gust 22 Mostly Cloudy 24 102.1 18 59 10
11:00 W 9 Mostly Cloudy 24 102.1 16 68 10
10:00 W 9 Mostly Cloudy 24 102.2 14 73 10
9:00 WNW 8 Mostly Cloudy 24 102.2 14 78 10
8:00 W 6 Mostly Cloudy 24 102.2 13 81 10
7:00 WNW 7 Mostly Cloudy 24 102.2 13 82 10
6:00 NW 4 Mostly Cloudy 24 102.1 13 81 10
5:00 WNW 7 N/A N/A 102.2 13 81 10
4:00 WNW 10 N/A N/A 102.1 13 82 10
3:00 WNW 8 N/A N/A 102.2 13 82 10
2:00 WNW 5 N/A N/A 102.2 13 83 10
1:00 WNW 3 N/A N/A 102.2 13 83 10
0:00 NW 6 N/A N/A 102.2 13 82 10
17 June 2021
23:00 WNW 5 N/A N/A 102.2 13 83 11
22:00 WNW 7 N/A N/A 102.2 14 82 11
21:00 W 11 gust 17 N/A N/A 102.2 14 77 10
20:00 W 13 gust 21 N/A N/A 102.1 14 77 10
19:00 W 16 gust 23 N/A N/A 102.1 16 69 10
18:00 WNW 12 gust 22 Mostly Cloudy 24 102.1 16 67 10
17:00 W 13 gust 21 Mostly Cloudy 24 102.1 16 66 10

Zoom-in to make a selection

Map of Pacific - North Coast marine weather areas Middle Nomad - 46004 South Nomad - 46036 Dixon Entrance Central - 46145 South Moresby - 46147 Nanakwa Shoal - 46181 North Hecate Strait - 46183 North Nomad - 46184 South Hecate Strait - 46185 West Sea Otter - 46204 West Dixon Entrance - 46205 East Dellwood - 46207 West Moresby - 46208 Sartine Island Cape St.James Kindakun Rocks Langara Island Masset Municipal Airport Rose Spit Sandspit Airport Bella Bella Airport Bella Coola Airport Bonilla Island Cathedral Point Cumshewa Island Grey Islet Holland Rock Lucy Islands Lightstation Prince Rupert Airport
Legend:
buoy Buoy
land station Land Station

Pacific - North Coast Area

Another Region

What we are doing

Date modified: